Bordertown, Nevada
Current Conditions -  °F | °C
As of 2:15 AM on Saturday 22 Nov 2014 (Local Time) from KRTS Reporting Station
Clear Clear  
Wind Chill: 41°   Ceiling: Unl
Heat Index: 48°   Visibility: 10mi
Dew Point: 37°   Wind: 21mph
Humidity: 66%   Direction: 250°WSW
Pressure: 29.99"   Gusts: 26mph
Location:  39.7378°N, 119.889°W
Report Text: KRTS 221015Z AUTO 25018G23KT 10SM CLR 09/03 A2999 RMK AO2
Loading
Personal Weather Stations






























Interactive Weather Map New forecast layout! Learn more

10-Day Weather Forecast

Advertisements
Track Severe Weather on mobile